createdAt,value
2018-04-26T00:00:18.541Z,10.60
2018-04-26T00:02:46.093Z,10.60
2018-04-26T00:05:13.557Z,10.50
2018-04-26T00:07:41.004Z,10.50
2018-04-26T00:10:08.452Z,10.50
2018-04-26T00:12:36.708Z,10.40
2018-04-26T00:15:04.531Z,10.40
2018-04-26T00:17:33.200Z,10.40
2018-04-26T00:20:02.162Z,10.20
2018-04-26T00:22:30.036Z,10.20
2018-04-26T00:24:59.541Z,10.20
2018-04-26T00:27:27.247Z,10.20
2018-04-26T00:29:55.528Z,10.20
2018-04-26T00:32:23.579Z,10.10
2018-04-26T00:34:53.779Z,10.10
2018-04-26T00:37:21.912Z,10.00
2018-04-26T00:39:49.792Z,10.10
2018-04-26T00:42:17.689Z,10.10
2018-04-26T00:44:45.137Z,10.10
2018-04-26T00:47:12.612Z,10.10
2018-04-26T00:49:40.107Z,10.10
2018-04-26T00:52:07.581Z,10.10
2018-04-26T00:54:38.006Z,10.10
2018-04-26T00:57:06.352Z,10.10
2018-04-26T00:59:33.831Z,10.00
2018-04-26T01:02:01.964Z,10.00
2018-04-26T01:04:30.957Z,10.00
2018-04-26T01:06:58.979Z,10.00
2018-04-26T01:09:26.693Z,10.00
2018-04-26T01:11:55.044Z,10.00
2018-04-26T01:14:24.089Z,10.10
2018-04-26T01:16:52.592Z,10.00
2018-04-26T01:19:20.806Z,10.10
2018-04-26T01:21:48.280Z,10.00
2018-04-26T01:24:16.892Z,10.00
2018-04-26T01:26:44.347Z,10.00
2018-04-26T01:29:11.866Z,10.00
2018-04-26T01:31:39.305Z,10.00
2018-04-26T01:34:06.796Z,10.00
2018-04-26T01:36:46.132Z,9.90
2018-04-26T01:39:13.600Z,9.90
2018-04-26T01:41:41.564Z,9.90
2018-04-26T01:44:09.069Z,9.90
2018-04-26T01:46:37.779Z,9.90
2018-04-26T01:49:05.441Z,9.80
2018-04-26T01:51:33.665Z,9.90
2018-04-26T01:54:01.627Z,9.80
2018-04-26T01:56:29.272Z,9.90
2018-04-26T01:58:58.489Z,9.90
2018-04-26T02:01:26.949Z,9.90
2018-04-26T02:03:56.008Z,9.80
2018-04-26T02:06:25.788Z,9.80
2018-04-26T02:08:54.494Z,9.80
2018-04-26T02:11:23.375Z,9.80
2018-04-26T02:13:53.774Z,9.80
2018-04-26T02:16:23.223Z,9.70
2018-04-26T02:18:51.769Z,9.70
2018-04-26T02:21:20.186Z,9.70
2018-04-26T02:23:47.803Z,9.80
2018-04-26T02:26:16.024Z,9.80
2018-04-26T02:28:43.510Z,9.80
2018-04-26T02:31:10.980Z,9.80
2018-04-26T02:33:38.470Z,9.80
2018-04-26T02:36:05.903Z,9.90
2018-04-26T02:38:33.366Z,9.90
2018-04-26T02:41:01.131Z,10.00
2018-04-26T02:43:28.952Z,10.00
2018-04-26T02:45:56.500Z,10.00
2018-04-26T02:48:24.701Z,10.10
2018-04-26T02:50:58.141Z,10.20
2018-04-26T02:53:26.220Z,10.20
2018-04-26T02:55:54.137Z,10.10
2018-04-26T02:58:22.470Z,10.10
2018-04-26T03:00:51.771Z,10.20
2018-04-26T03:03:20.087Z,10.10
2018-04-26T03:05:47.597Z,10.20
2018-04-26T03:08:15.873Z,10.20
2018-04-26T03:10:43.392Z,10.20
2018-04-26T03:13:11.601Z,10.20
2018-04-26T03:15:39.113Z,10.20
2018-04-26T03:18:11.505Z,10.20
2018-04-26T03:20:39.139Z,10.20
2018-04-26T03:23:06.581Z,10.20
2018-04-26T03:25:34.808Z,10.30
2018-04-26T03:28:02.774Z,10.30
2018-04-26T03:30:31.139Z,10.30
2018-04-26T03:33:00.756Z,10.20
2018-04-26T03:35:28.852Z,10.20
2018-04-26T03:37:56.652Z,10.20
2018-04-26T03:40:25.816Z,10.20
2018-04-26T03:42:55.005Z,10.20
2018-04-26T03:45:23.300Z,10.30
2018-04-26T03:47:51.842Z,10.30
2018-04-26T03:50:20.588Z,10.30
2018-04-26T03:52:48.056Z,10.30
2018-04-26T03:55:15.524Z,10.30
2018-04-26T03:57:42.976Z,10.30
2018-04-26T04:00:23.504Z,10.30
2018-04-26T04:03:02.896Z,10.30
2018-04-26T04:05:43.069Z,10.30
2018-04-26T04:08:12.849Z,10.30
2018-04-26T04:10:40.516Z,10.30
2018-04-26T04:13:07.977Z,10.30
2018-04-26T04:15:35.432Z,10.20
2018-04-26T04:18:03.672Z,10.10
2018-04-26T04:20:32.608Z,10.20
2018-04-26T04:23:00.356Z,10.20
2018-04-26T04:25:28.229Z,10.20
2018-04-26T04:27:56.257Z,10.20
2018-04-26T04:30:25.065Z,10.30
2018-04-26T04:32:53.239Z,10.30
2018-04-26T04:35:22.183Z,10.30
2018-04-26T04:37:51.412Z,10.40
2018-04-26T04:40:19.630Z,10.50
2018-04-26T04:42:47.138Z,10.60
2018-04-26T04:45:14.670Z,10.50
2018-04-26T04:47:42.068Z,10.50
2018-04-26T04:50:09.533Z,10.50
2018-04-26T04:52:37.004Z,10.50
2018-04-26T04:55:05.312Z,10.40
2018-04-26T04:57:33.832Z,10.40
2018-04-26T05:00:03.021Z,10.40
2018-04-26T05:02:34.436Z,10.50
2018-04-26T05:05:03.231Z,10.40
2018-04-26T05:07:31.017Z,10.40
2018-04-26T05:10:00.516Z,10.40
2018-04-26T05:12:29.188Z,10.40
2018-04-26T05:14:57.065Z,10.40
2018-04-26T05:17:25.371Z,10.50
2018-04-26T05:19:54.612Z,10.60
2018-04-26T05:22:26.475Z,10.60
2018-04-26T05:24:54.398Z,10.60
2018-04-26T05:27:24.899Z,10.60
2018-04-26T05:29:54.623Z,10.60
2018-04-26T05:32:23.177Z,10.60
2018-04-26T05:34:52.635Z,10.70
2018-04-26T05:37:22.217Z,10.70
2018-04-26T05:39:52.627Z,10.70
2018-04-26T05:42:22.185Z,10.80
2018-04-26T05:44:51.284Z,10.80
2018-04-26T05:47:19.139Z,10.70
2018-04-26T05:49:46.682Z,10.70
2018-04-26T05:52:14.151Z,10.80
2018-04-26T05:54:41.596Z,10.80
2018-04-26T05:57:09.107Z,10.80
2018-04-26T05:59:36.557Z,10.80
2018-04-26T06:02:04.565Z,10.70
2018-04-26T06:04:32.154Z,10.60
2018-04-26T06:07:00.044Z,10.60
2018-04-26T06:09:27.830Z,10.70
2018-04-26T06:11:57.165Z,10.70
2018-04-26T06:14:25.913Z,10.80
2018-04-26T06:16:54.514Z,10.80
2018-04-26T06:19:23.571Z,11.00
2018-04-26T06:21:52.309Z,11.00
2018-04-26T06:24:21.632Z,10.90
2018-04-26T06:26:49.482Z,10.90
2018-04-26T06:29:17.128Z,11.00
2018-04-26T06:31:44.593Z,11.00
2018-04-26T06:34:12.056Z,11.00
2018-04-26T06:36:39.514Z,11.00
2018-04-26T06:39:07.738Z,11.00
2018-04-26T06:41:35.201Z,11.00
2018-04-26T06:44:02.817Z,10.90
2018-04-26T06:46:30.558Z,10.90
2018-04-26T06:48:58.371Z,10.90
2018-04-26T06:51:27.148Z,11.00
2018-04-26T06:53:55.904Z,10.90
2018-04-26T06:56:24.360Z,10.90
2018-04-26T06:58:54.598Z,10.90
2018-04-26T07:01:24.590Z,10.80
2018-04-26T07:03:52.806Z,10.80
2018-04-26T07:06:21.564Z,10.70
2018-04-26T07:08:49.909Z,10.70
2018-04-26T07:11:18.444Z,10.60
2018-04-26T07:13:46.116Z,10.60
2018-04-26T07:16:13.588Z,10.70
2018-04-26T07:18:41.053Z,10.70
2018-04-26T07:21:08.504Z,10.80
2018-04-26T07:23:36.093Z,11.00
2018-04-26T07:26:03.837Z,11.10
2018-04-26T07:28:31.518Z,11.10
2018-04-26T07:30:59.512Z,11.20
2018-04-26T07:33:27.466Z,11.30
2018-04-26T07:35:55.404Z,11.30
2018-04-26T07:38:24.589Z,11.50
2018-04-26T07:40:53.068Z,11.40
2018-04-26T07:43:20.932Z,11.90
2018-04-26T07:45:48.434Z,12.30
2018-04-26T07:48:15.880Z,12.50
2018-04-26T07:50:43.333Z,13.20
2018-04-26T07:53:11.566Z,13.40
2018-04-26T07:55:39.098Z,13.30
2018-04-26T07:58:06.628Z,13.00
2018-04-26T08:00:34.095Z,12.70
2018-04-26T08:03:01.737Z,12.60
2018-04-26T08:05:29.733Z,12.50
2018-04-26T08:07:57.643Z,12.40
2018-04-26T08:10:25.615Z,12.30
2018-04-26T08:12:53.579Z,12.30
2018-04-26T08:15:22.960Z,12.50
2018-04-26T08:17:51.157Z,12.50
2018-04-26T08:20:19.997Z,12.80
2018-04-26T08:22:47.582Z,12.80
2018-04-26T08:25:15.061Z,12.80
2018-04-26T08:27:42.544Z,12.80
2018-04-26T08:30:09.992Z,12.90
2018-04-26T08:32:37.578Z,13.00
2018-04-26T08:35:05.036Z,12.80
2018-04-26T08:37:32.588Z,12.80
2018-04-26T08:40:00.160Z,13.10
2018-04-26T08:42:27.744Z,13.20
2018-04-26T08:44:56.453Z,13.30
2018-04-26T08:47:25.146Z,13.50
2018-04-26T08:49:52.690Z,13.50
2018-04-26T08:52:22.330Z,13.40
2018-04-26T08:54:52.415Z,13.40
2018-04-26T08:57:22.329Z,13.40
2018-04-26T08:59:50.668Z,13.40
2018-04-26T09:02:18.120Z,13.40
2018-04-26T09:04:45.580Z,13.30
2018-04-26T09:07:13.821Z,13.30
2018-04-26T09:09:41.272Z,13.30
2018-04-26T09:12:08.760Z,14.00
2018-04-26T09:14:36.220Z,14.30
2018-04-26T09:17:03.764Z,15.00
2018-04-26T09:19:31.320Z,16.30
2018-04-26T09:21:58.881Z,16.90
2018-04-26T09:24:26.592Z,16.90
2018-04-26T09:26:54.738Z,16.40
2018-04-26T09:29:23.707Z,15.40
2018-04-26T09:31:52.665Z,15.40
2018-04-26T09:34:20.817Z,15.00
2018-04-26T09:36:48.360Z,14.50
2018-04-26T09:39:15.829Z,14.20
2018-04-26T09:41:43.276Z,13.90
2018-04-26T09:44:11.500Z,13.80
2018-04-26T09:46:38.953Z,13.80
2018-04-26T09:49:06.438Z,13.70
2018-04-26T09:51:34.443Z,14.10
2018-04-26T09:54:02.002Z,14.10
2018-04-26T09:56:29.576Z,13.80
2018-04-26T09:58:57.033Z,13.40
2018-04-26T10:01:27.488Z,13.20
2018-04-26T10:03:55.021Z,13.40
2018-04-26T10:06:29.057Z,13.90
2018-04-26T10:08:56.508Z,14.10
2018-04-26T10:11:23.968Z,14.20
2018-04-26T10:13:52.209Z,14.40
2018-04-26T10:16:19.680Z,14.40
2018-04-26T10:18:47.319Z,14.20
2018-04-26T10:21:15.852Z,14.00
2018-04-26T10:23:43.652Z,13.90
2018-04-26T10:26:11.894Z,13.60
2018-04-26T10:28:39.864Z,13.60
2018-04-26T10:31:08.080Z,13.90
2018-04-26T10:33:37.447Z,14.10
2018-04-26T10:36:06.181Z,14.10
2018-04-26T10:38:34.392Z,13.90
2018-04-26T10:41:02.148Z,13.80
2018-04-26T10:43:29.751Z,13.60
2018-04-26T10:45:57.196Z,13.70
2018-04-26T10:48:24.672Z,13.70
2018-04-26T10:50:52.149Z,14.20
2018-04-26T10:53:19.612Z,14.30
2018-04-26T10:55:47.088Z,14.30
2018-04-26T10:58:15.277Z,14.20
2018-04-26T11:00:43.933Z,14.10
2018-04-26T11:03:12.304Z,14.10
2018-04-26T11:05:40.641Z,14.00
2018-04-26T11:08:08.515Z,13.90
2018-04-26T11:10:36.603Z,13.90
2018-04-26T11:13:05.371Z,13.80
2018-04-26T11:15:33.301Z,14.00
2018-04-26T11:18:00.905Z,14.50
2018-04-26T11:20:28.353Z,14.70
2018-04-26T11:22:55.821Z,15.10
2018-04-26T11:25:23.287Z,15.20
2018-04-26T11:27:50.818Z,15.20
2018-04-26T11:30:18.268Z,15.20
2018-04-26T11:32:46.541Z,15.40
2018-04-26T11:35:14.071Z,15.30
2018-04-26T11:37:42.410Z,14.80
2018-04-26T11:40:09.969Z,14.80
2018-04-26T11:42:38.555Z,14.60
2018-04-26T11:45:08.552Z,14.70
2018-04-26T11:47:37.712Z,14.70
2018-04-26T11:50:06.149Z,14.70
2018-04-26T11:52:36.708Z,14.70
2018-04-26T11:55:06.768Z,15.60
2018-04-26T11:57:35.267Z,15.60
2018-04-26T12:00:05.304Z,17.20
2018-04-26T12:02:34.153Z,17.00
2018-04-26T12:05:04.501Z,18.20
2018-04-26T12:07:31.988Z,18.20
2018-04-26T12:10:00.465Z,19.10
2018-04-26T12:12:27.956Z,19.00
2018-04-26T12:14:55.404Z,18.40
2018-04-26T12:17:22.865Z,17.70
2018-04-26T12:19:50.365Z,17.40
2018-04-26T12:22:17.848Z,17.00
2018-04-26T12:24:46.070Z,16.80
2018-04-26T12:27:14.462Z,16.80
2018-04-26T12:29:42.335Z,16.80
2018-04-26T12:32:09.963Z,16.90
2018-04-26T12:34:37.721Z,17.00
2018-04-26T12:37:05.649Z,17.00
2018-04-26T12:39:34.725Z,17.30
2018-04-26T12:42:03.230Z,17.30
2018-04-26T12:44:30.688Z,16.90
2018-04-26T12:46:58.148Z,16.70
2018-04-26T12:49:25.604Z,16.40
2018-04-26T12:51:53.124Z,16.40
2018-04-26T12:54:20.572Z,16.50
2018-04-26T12:56:48.066Z,16.60
2018-04-26T12:59:15.643Z,17.30
2018-04-26T13:01:43.374Z,18.30
2018-04-26T13:04:12.087Z,18.00
2018-04-26T13:06:40.475Z,18.10
2018-04-26T13:09:07.937Z,19.40
2018-04-26T13:11:35.389Z,19.30
2018-04-26T13:14:03.624Z,20.50
2018-04-26T13:16:31.098Z,20.60
2018-04-26T13:18:59.353Z,21.30
2018-04-26T13:21:27.988Z,22.10
2018-04-26T13:23:56.618Z,21.60
2018-04-26T13:26:25.978Z,21.40
2018-04-26T13:28:53.829Z,21.40
2018-04-26T13:31:22.449Z,21.60
2018-04-26T13:33:51.757Z,21.60
2018-04-26T13:36:21.221Z,21.50
2018-04-26T13:38:49.985Z,21.00
2018-04-26T13:41:18.993Z,21.00
2018-04-26T13:43:47.278Z,20.40
2018-04-26T13:46:14.892Z,20.00
2018-04-26T13:48:42.412Z,19.20
2018-04-26T13:51:10.637Z,18.70
2018-04-26T13:53:38.112Z,18.70
2018-04-26T13:56:05.569Z,19.40
2018-04-26T13:58:33.032Z,19.60
2018-04-26T14:01:00.530Z,19.30
2018-04-26T14:03:28.099Z,19.10
2018-04-26T14:05:55.706Z,19.60
2018-04-26T14:08:24.169Z,19.90
2018-04-26T14:10:52.724Z,19.90
2018-04-26T14:13:20.912Z,20.00
2018-04-26T14:15:49.029Z,20.40
2018-04-26T14:18:16.843Z,20.70
2018-04-26T14:20:45.100Z,20.70
2018-04-26T14:23:12.801Z,20.70
2018-04-26T14:25:40.186Z,19.80
2018-04-26T14:28:07.636Z,19.90
2018-04-26T14:30:35.129Z,20.20
2018-04-26T14:33:02.596Z,19.30
2018-04-26T14:35:30.136Z,18.60
2018-04-26T14:37:59.443Z,17.70
2018-04-26T14:40:27.882Z,17.70
2018-04-26T14:42:56.509Z,17.80
2018-04-26T14:45:25.455Z,17.80
2018-04-26T14:47:53.337Z,17.60
2018-04-26T14:50:22.840Z,17.60
2018-04-26T14:52:51.155Z,17.60
2018-04-26T14:55:19.522Z,17.40
2018-04-26T14:57:49.817Z,17.50
2018-04-26T15:00:20.235Z,17.40
2018-04-26T15:02:49.177Z,17.20
2018-04-26T15:05:18.268Z,17.10
2018-04-26T15:07:45.928Z,17.10
2018-04-26T15:10:13.439Z,17.10
2018-04-26T15:12:40.888Z,17.00
2018-04-26T15:15:08.352Z,16.70
2018-04-26T15:17:35.853Z,16.50
2018-04-26T15:20:03.490Z,16.40
2018-04-26T15:22:31.700Z,16.20
2018-04-26T15:24:59.422Z,16.20
2018-04-26T15:27:28.333Z,16.00
2018-04-26T15:29:55.985Z,15.90
2018-04-26T15:32:24.573Z,15.80
2018-04-26T15:34:52.968Z,15.50
2018-04-26T15:37:21.623Z,14.80
2018-04-26T15:39:50.968Z,14.50
2018-04-26T15:42:21.701Z,13.80
2018-04-26T15:44:49.441Z,13.70
2018-04-26T15:47:19.804Z,13.60
2018-04-26T15:49:48.171Z,13.50
2018-04-26T15:55:44.747Z,13.40
2018-04-26T16:01:13.609Z,13.10
2018-04-26T16:03:52.964Z,13.10
2018-04-26T16:06:34.783Z,13.10
2018-04-26T16:09:14.114Z,13.20
2018-04-26T16:11:53.509Z,13.50
2018-04-26T16:14:34.003Z,13.60
2018-04-26T16:17:31.879Z,13.50
2018-04-26T16:20:17.534Z,13.50
2018-04-26T16:23:02.941Z,13.40
2018-04-26T16:25:42.964Z,13.30
2018-04-26T16:28:28.289Z,13.30
2018-04-26T16:31:14.429Z,13.20
2018-04-26T16:34:04.620Z,13.20
2018-04-26T16:36:43.932Z,13.20
2018-04-26T16:39:19.226Z,13.20
2018-04-26T16:41:48.329Z,13.20
2018-04-26T16:44:17.127Z,13.00
2018-04-26T16:46:45.748Z,12.90
2018-04-26T16:49:13.241Z,13.10
2018-04-26T16:51:40.724Z,13.30
2018-04-26T16:54:08.177Z,13.50
2018-04-26T16:56:35.648Z,13.60
2018-04-26T16:59:03.101Z,13.70
2018-04-26T17:01:30.603Z,13.70
2018-04-26T17:03:58.263Z,13.70
2018-04-26T17:06:25.834Z,13.70
2018-04-26T17:08:53.367Z,13.70
2018-04-26T17:11:21.097Z,13.60
2018-04-26T17:13:49.512Z,13.40
2018-04-26T17:16:17.776Z,13.30
2018-04-26T17:18:45.301Z,13.30
2018-04-26T17:21:12.809Z,13.20
2018-04-26T17:23:40.276Z,13.20
2018-04-26T17:26:07.746Z,13.20
2018-04-26T17:28:35.220Z,13.20
2018-04-26T17:31:02.677Z,13.20
2018-04-26T17:33:30.716Z,13.20
2018-04-26T17:35:59.409Z,13.20
2018-04-26T17:38:27.696Z,13.30
2018-04-26T17:40:55.829Z,13.20
2018-04-26T17:43:24.497Z,13.20
2018-04-26T17:45:52.325Z,13.20
2018-04-26T17:48:21.202Z,13.10
2018-04-26T17:50:48.914Z,13.00
2018-04-26T17:53:18.700Z,12.70
2018-04-26T17:55:46.171Z,12.70
2018-04-26T17:58:14.552Z,12.70
2018-04-26T18:00:41.952Z,12.70
2018-04-26T18:03:09.408Z,12.60
2018-04-26T18:05:36.872Z,12.50
2018-04-26T18:08:04.329Z,12.60
2018-04-26T18:10:31.888Z,12.50
2018-04-26T18:12:59.463Z,12.50
2018-04-26T18:15:27.411Z,12.50
2018-04-26T18:17:55.374Z,12.40
2018-04-26T18:20:23.017Z,12.30
2018-04-26T18:22:50.970Z,12.10
2018-04-26T18:25:18.994Z,11.90
2018-04-26T18:27:47.277Z,11.80
2018-04-26T18:30:14.730Z,11.80
2018-04-26T18:32:42.193Z,11.60
2018-04-26T18:35:09.729Z,11.50
2018-04-26T18:37:37.240Z,11.40
2018-04-26T18:40:04.713Z,11.40
2018-04-26T18:42:34.997Z,11.40
2018-04-26T18:45:03.297Z,11.40
2018-04-26T18:47:31.508Z,11.40
2018-04-26T18:49:59.092Z,11.40
2018-04-26T18:52:27.157Z,11.30
2018-04-26T18:54:54.696Z,11.30
2018-04-26T18:57:23.035Z,11.40
2018-04-26T18:59:51.510Z,11.40
2018-04-26T19:02:20.173Z,11.40
2018-04-26T19:04:48.704Z,11.20
2018-04-26T19:07:16.745Z,11.20
2018-04-26T19:09:44.996Z,11.10
2018-04-26T19:12:12.525Z,11.10
2018-04-26T19:14:40.737Z,11.10
2018-04-26T19:17:08.513Z,11.10
2018-04-26T19:19:36.381Z,11.00
2018-04-26T19:22:03.844Z,10.90
2018-04-26T19:24:31.335Z,10.90
2018-04-26T19:26:58.888Z,10.80
2018-04-26T19:29:26.440Z,10.80
2018-04-26T19:31:54.110Z,10.70
2018-04-26T19:34:21.871Z,10.60
2018-04-26T19:36:51.101Z,10.60
2018-04-26T19:39:19.118Z,10.70
2018-04-26T19:41:48.388Z,10.60
2018-04-26T19:44:16.808Z,10.60
2018-04-26T19:46:44.589Z,10.60
2018-04-26T19:49:12.044Z,10.60
2018-04-26T19:51:39.572Z,10.60
2018-04-26T19:54:07.040Z,10.60
2018-04-26T19:56:34.824Z,10.50
2018-04-26T19:59:02.398Z,10.50
2018-04-26T20:01:29.848Z,10.40
2018-04-26T20:03:57.391Z,10.30
2018-04-26T20:06:30.485Z,10.20
2018-04-26T20:08:58.601Z,10.20
2018-04-26T20:11:26.377Z,10.20
2018-04-26T20:13:54.813Z,10.10
2018-04-26T20:16:23.798Z,10.10
2018-04-26T20:18:51.352Z,10.10
2018-04-26T20:21:19.722Z,10.00
2018-04-26T20:23:49.205Z,10.00
2018-04-26T20:26:17.912Z,9.90
2018-04-26T20:28:45.550Z,9.90
2018-04-26T20:31:13.016Z,9.90
2018-04-26T20:33:40.481Z,9.70
2018-04-26T20:36:07.976Z,9.70
2018-04-26T20:38:35.419Z,9.60
2018-04-26T20:41:02.870Z,9.50
2018-04-26T20:43:30.372Z,9.40
2018-04-26T20:45:57.935Z,9.40
2018-04-26T20:48:37.305Z,9.40
2018-04-26T20:51:04.757Z,9.30
2018-04-26T20:53:32.233Z,9.30
2018-04-26T20:55:59.788Z,9.20
2018-04-26T20:58:27.294Z,9.10
2018-04-26T21:00:55.800Z,9.00
2018-04-26T21:03:24.128Z,9.00
2018-04-26T21:05:52.098Z,8.90
2018-04-26T21:08:20.559Z,8.90
2018-04-26T21:10:49.134Z,8.80
2018-04-26T21:13:17.291Z,8.70
2018-04-26T21:15:44.992Z,8.70
2018-04-26T21:18:12.440Z,8.60
2018-04-26T21:20:39.925Z,8.50
2018-04-26T21:23:07.369Z,8.50
2018-04-26T21:25:34.846Z,8.40
2018-04-26T21:28:02.293Z,8.40
2018-04-26T21:30:29.841Z,8.30
2018-04-26T21:32:57.430Z,8.30
2018-04-26T21:35:25.086Z,8.30
2018-04-26T21:37:53.661Z,8.20
2018-04-26T21:40:22.345Z,8.10
2018-04-26T21:42:50.445Z,8.10
2018-04-26T21:45:18.720Z,8.10
2018-04-26T21:47:47.059Z,8.00
2018-04-26T21:50:21.078Z,8.00
2018-04-26T21:52:54.346Z,8.00
2018-04-26T21:55:28.338Z,8.00
2018-04-26T21:58:01.436Z,8.00
2018-04-26T22:00:34.649Z,8.00
2018-04-26T22:03:01.612Z,7.90
2018-04-26T22:05:30.812Z,7.80
2018-04-26T22:07:58.316Z,7.80
2018-04-26T22:10:25.897Z,7.80
2018-04-26T22:12:54.233Z,7.70
2018-04-26T22:15:22.062Z,7.70
2018-04-26T22:17:50.999Z,7.70
2018-04-26T22:20:19.780Z,7.70
2018-04-26T22:22:49.768Z,7.70
2018-04-26T22:25:19.642Z,7.70
2018-04-26T22:27:47.994Z,7.60
2018-04-26T22:30:15.473Z,7.60
2018-04-26T22:32:42.924Z,7.60
2018-04-26T22:35:10.382Z,7.60
2018-04-26T22:37:38.595Z,7.60
2018-04-26T22:40:06.041Z,7.50
2018-04-26T22:42:33.494Z,7.50
2018-04-26T22:45:01.710Z,7.50
2018-04-26T22:47:29.324Z,7.40
2018-04-26T22:49:56.996Z,7.40
2018-04-26T22:52:24.556Z,7.40
2018-04-26T22:54:52.467Z,7.40
2018-04-26T22:57:21.699Z,7.30
2018-04-26T22:59:50.369Z,7.20
2018-04-26T23:02:18.475Z,7.30
2018-04-26T23:04:46.112Z,7.20
2018-04-26T23:07:13.680Z,7.20
2018-04-26T23:09:41.245Z,7.20
2018-04-26T23:12:08.750Z,7.20
2018-04-26T23:14:36.243Z,7.20
2018-04-26T23:17:04.481Z,7.10
2018-04-26T23:19:31.964Z,7.10
2018-04-26T23:21:59.561Z,7.10
2018-04-26T23:24:27.336Z,7.10
2018-04-26T23:26:54.893Z,7.10
2018-04-26T23:29:23.528Z,7.10
2018-04-26T23:31:51.504Z,7.00
2018-04-26T23:34:21.065Z,7.00
2018-04-26T23:36:50.206Z,7.00
2018-04-26T23:39:18.385Z,6.90
2018-04-26T23:41:46.061Z,6.90
2018-04-26T23:44:14.396Z,6.90
2018-04-26T23:46:41.869Z,6.90
2018-04-26T23:49:09.316Z,6.90
2018-04-26T23:51:37.545Z,6.90
2018-04-26T23:54:04.990Z,6.90
2018-04-26T23:56:33.370Z,6.90
2018-04-26T23:59:01.015Z,6.90
